AAA1123 YBRM-YBAS
Flight info
| Callsign | AAA1123 |
|---|---|
| Flight time | 1h 33m |
| Altitude | 35000 |
| Route | DCT CESCI T11 LUGSA DCT |
| Aircraft | A320/M-SDE3FGHIRWY/LB1 |
Departure
| Time | 2026-05-08 05:49 |
|---|---|
| Airport | Broome International Airport (YBRM) |
Arrival
| Time | 2026-05-08 07:23 |
|---|---|
| Airport | Alice Springs Airport (YBAS) |
| Time | Latitude | Longitude | Altitude | Speed | Heading |
|---|---|---|---|---|---|
| 2026-05-08 05:39 | -17.95192 | 122.23395 | 37 ft | 0 kts | 259° |
| 2026-05-08 05:45 | -17.95192 | 122.23393 | 37 ft | 1 kts | 275° |
| 2026-05-08 05:45 | -17.95160 | 122.23379 | 37 ft | 10 kts | 344° |
| 2026-05-08 05:45 | -17.95075 | 122.23421 | 34 ft | 17 kts | 70° |
| 2026-05-08 05:45 | -17.95093 | 122.23549 | 31 ft | 18 kts | 101° |
| 2026-05-08 05:46 | -17.95123 | 122.23681 | 31 ft | 19 kts | 104° |
| 2026-05-08 05:46 | -17.95158 | 122.23768 | 30 ft | 9 kts | 121° |
| 2026-05-08 05:46 | -17.95145 | 122.23780 | 30 ft | 2 kts | 283° |
| 2026-05-08 05:46 | -17.95145 | 122.23758 | 30 ft | 5 kts | 272° |
| 2026-05-08 05:47 | -17.95141 | 122.23736 | 30 ft | 0 kts | 284° |
| 2026-05-08 05:47 | -17.95141 | 122.23734 | 30 ft | 0 kts | 285° |
| 2026-05-08 05:48 | -17.95138 | 122.23723 | 30 ft | 13 kts | 285° |
| 2026-05-08 05:48 | -17.95032 | 122.23327 | 37 ft | 95 kts | 285° |
| 2026-05-08 05:48 | -17.94799 | 122.22445 | 58 ft | 152 kts | 285° |
| 2026-05-08 05:49 | -17.94464 | 122.21237 | 202 ft | 182 kts | 287° |
| 2026-05-08 05:49 | -17.94119 | 122.20032 | 910 ft | 175 kts | 284° |
| 2026-05-08 05:49 | -17.94092 | 122.18700 | 1141 ft | 194 kts | 246° |
| 2026-05-08 05:49 | -17.94929 | 122.17580 | 1409 ft | 204 kts | 204° |
| 2026-05-08 05:50 | -17.96332 | 122.17341 | 1651 ft | 214 kts | 162° |
| 2026-05-08 05:50 | -17.97586 | 122.18231 | 1945 ft | 231 kts | 126° |
| 2026-05-08 05:50 | -17.98498 | 122.19708 | 2583 ft | 247 kts | 118° |
| 2026-05-08 05:50 | -17.99325 | 122.21303 | 3478 ft | 250 kts | 117° |
| 2026-05-08 05:51 | -18.00140 | 122.22935 | 4333 ft | 254 kts | 119° |
| 2026-05-08 05:51 | -18.00969 | 122.24586 | 5160 ft | 257 kts | 120° |
| 2026-05-08 05:51 | -18.01809 | 122.26234 | 5895 ft | 264 kts | 121° |
| 2026-05-08 05:51 | -18.02693 | 122.27939 | 6616 ft | 268 kts | 122° |
| 2026-05-08 05:52 | -18.03600 | 122.29666 | 7313 ft | 273 kts | 122° |
| 2026-05-08 05:52 | -18.04533 | 122.31426 | 7981 ft | 279 kts | 122° |
| 2026-05-08 05:52 | -18.05494 | 122.33230 | 8643 ft | 285 kts | 122° |
| 2026-05-08 05:52 | -18.06474 | 122.35069 | 9301 ft | 292 kts | 123° |
| 2026-05-08 05:53 | -18.07474 | 122.36951 | 9948 ft | 298 kts | 121° |
| 2026-05-08 05:53 | -18.08501 | 122.38890 | 10346 ft | 313 kts | 122° |
| 2026-05-08 05:53 | -18.09604 | 122.40962 | 10511 ft | 336 kts | 122° |
| 2026-05-08 05:53 | -18.10785 | 122.43180 | 10635 ft | 359 kts | 122° |
| 2026-05-08 05:54 | -18.12042 | 122.45536 | 10756 ft | 380 kts | 121° |
| 2026-05-08 05:54 | -18.13357 | 122.48012 | 10957 ft | 395 kts | 122° |
| 2026-05-08 05:54 | -18.14701 | 122.50564 | 11413 ft | 402 kts | 122° |
| 2026-05-08 05:54 | -18.16064 | 122.53152 | 11943 ft | 407 kts | 122° |
| 2026-05-08 05:55 | -18.17441 | 122.55756 | 12538 ft | 409 kts | 121° |
| 2026-05-08 05:55 | -18.18837 | 122.58395 | 13109 ft | 413 kts | 122° |
| 2026-05-08 05:55 | -18.20236 | 122.61046 | 13637 ft | 417 kts | 121° |
| 2026-05-08 05:55 | -18.21651 | 122.63719 | 14162 ft | 420 kts | 121° |
| 2026-05-08 05:56 | -18.23078 | 122.66413 | 14622 ft | 424 kts | 121° |
| 2026-05-08 05:56 | -18.24521 | 122.69139 | 15048 ft | 429 kts | 121° |
| 2026-05-08 05:56 | -18.25978 | 122.71895 | 15493 ft | 433 kts | 121° |
| 2026-05-08 05:56 | -18.27446 | 122.74675 | 15969 ft | 437 kts | 121° |
| 2026-05-08 05:57 | -18.28926 | 122.77482 | 16407 ft | 440 kts | 121° |
| 2026-05-08 05:57 | -18.30416 | 122.80309 | 16845 ft | 444 kts | 121° |
| 2026-05-08 05:57 | -18.31920 | 122.83163 | 17263 ft | 448 kts | 121° |
| 2026-05-08 05:57 | -18.33434 | 122.86040 | 17671 ft | 451 kts | 121° |
| 2026-05-08 05:58 | -18.34957 | 122.88943 | 18074 ft | 455 kts | 121° |
| 2026-05-08 05:58 | -18.36495 | 122.91870 | 18435 ft | 459 kts | 122° |
| 2026-05-08 05:58 | -18.38048 | 122.94819 | 18747 ft | 462 kts | 122° |
| 2026-05-08 05:58 | -18.39616 | 122.97789 | 19077 ft | 466 kts | 122° |
| 2026-05-08 05:59 | -18.41177 | 123.00749 | 19367 ft | 469 kts | 122° |
| 2026-05-08 05:59 | -18.42763 | 123.03762 | 19660 ft | 472 kts | 122° |
| 2026-05-08 05:59 | -18.44362 | 123.06803 | 19957 ft | 476 kts | 122° |
| 2026-05-08 05:59 | -18.45969 | 123.09863 | 20248 ft | 479 kts | 122° |
| 2026-05-08 06:00 | -18.47586 | 123.12945 | 20529 ft | 482 kts | 122° |
| 2026-05-08 06:00 | -18.49210 | 123.16045 | 20811 ft | 485 kts | 122° |
| 2026-05-08 06:00 | -18.50848 | 123.19167 | 21090 ft | 488 kts | 122° |
| 2026-05-08 06:00 | -18.52495 | 123.22306 | 21357 ft | 491 kts | 122° |
| 2026-05-08 06:01 | -18.54150 | 123.25466 | 21610 ft | 494 kts | 122° |
| 2026-05-08 06:01 | -18.55813 | 123.28644 | 21866 ft | 496 kts | 122° |
| 2026-05-08 06:01 | -18.57483 | 123.31840 | 22126 ft | 499 kts | 121° |
| 2026-05-08 06:01 | -18.59159 | 123.35050 | 22374 ft | 502 kts | 121° |
| 2026-05-08 06:02 | -18.60846 | 123.38281 | 22615 ft | 504 kts | 121° |
| 2026-05-08 06:02 | -18.62540 | 123.41529 | 22852 ft | 507 kts | 121° |
| 2026-05-08 06:02 | -18.64243 | 123.44793 | 23082 ft | 509 kts | 121° |
| 2026-05-08 06:02 | -18.65954 | 123.48070 | 23307 ft | 512 kts | 121° |
| 2026-05-08 06:03 | -18.67676 | 123.51369 | 23550 ft | 514 kts | 121° |
| 2026-05-08 06:03 | -18.69403 | 123.54682 | 23716 ft | 517 kts | 121° |
| 2026-05-08 06:03 | -18.71135 | 123.58012 | 23895 ft | 519 kts | 121° |
| 2026-05-08 06:03 | -18.72873 | 123.61355 | 24080 ft | 521 kts | 121° |
| 2026-05-08 06:04 | -18.74619 | 123.64708 | 24252 ft | 523 kts | 122° |
| 2026-05-08 06:04 | -18.76376 | 123.68076 | 24410 ft | 525 kts | 122° |
| 2026-05-08 06:04 | -18.78141 | 123.71459 | 24554 ft | 527 kts | 122° |
| 2026-05-08 06:04 | -18.79886 | 123.74813 | 24703 ft | 529 kts | 122° |
| 2026-05-08 06:05 | -18.81681 | 123.78273 | 24854 ft | 531 kts | 122° |
| 2026-05-08 06:05 | -18.83459 | 123.81700 | 24992 ft | 533 kts | 122° |
| 2026-05-08 06:05 | -18.85239 | 123.85136 | 25141 ft | 535 kts | 122° |
| 2026-05-08 06:05 | -18.86997 | 123.88539 | 25326 ft | 535 kts | 122° |
| 2026-05-08 06:06 | -18.88778 | 123.91989 | 25530 ft | 536 kts | 122° |
| 2026-05-08 06:06 | -18.90566 | 123.95441 | 25726 ft | 536 kts | 122° |
| 2026-05-08 06:06 | -18.92359 | 123.98900 | 25947 ft | 537 kts | 122° |
| 2026-05-08 06:06 | -18.94153 | 124.02364 | 26145 ft | 538 kts | 122° |
| 2026-05-08 06:07 | -18.95951 | 124.05836 | 26293 ft | 540 kts | 122° |
| 2026-05-08 06:07 | -18.97756 | 124.09324 | 26413 ft | 542 kts | 122° |
| 2026-05-08 06:07 | -18.99563 | 124.12823 | 26533 ft | 544 kts | 122° |
| 2026-05-08 06:07 | -19.01375 | 124.16337 | 26653 ft | 545 kts | 122° |
| 2026-05-08 06:08 | -19.03191 | 124.19863 | 26771 ft | 547 kts | 122° |
| 2026-05-08 06:08 | -19.05009 | 124.23392 | 26892 ft | 548 kts | 122° |
| 2026-05-08 06:08 | -19.06835 | 124.26935 | 27012 ft | 549 kts | 122° |
| 2026-05-08 06:08 | -19.08658 | 124.30479 | 27136 ft | 550 kts | 122° |
| 2026-05-08 06:09 | -19.10484 | 124.34033 | 27262 ft | 550 kts | 122° |
| 2026-05-08 06:09 | -19.12319 | 124.37596 | 27412 ft | 551 kts | 122° |
| 2026-05-08 06:09 | -19.14157 | 124.41161 | 27536 ft | 552 kts | 122° |
| 2026-05-08 06:09 | -19.15982 | 124.44704 | 27664 ft | 553 kts | 122° |
| 2026-05-08 06:10 | -19.17820 | 124.48289 | 27782 ft | 553 kts | 122° |
| 2026-05-08 06:10 | -19.19653 | 124.51870 | 27906 ft | 554 kts | 122° |
| 2026-05-08 06:10 | -19.21487 | 124.55461 | 28031 ft | 555 kts | 122° |
| 2026-05-08 06:10 | -19.23321 | 124.59054 | 28158 ft | 556 kts | 122° |
| 2026-05-08 06:11 | -19.25163 | 124.62653 | 28291 ft | 556 kts | 122° |
| 2026-05-08 06:11 | -19.27008 | 124.66249 | 28416 ft | 557 kts | 122° |
| 2026-05-08 06:11 | -19.28858 | 124.69851 | 28550 ft | 557 kts | 122° |
| 2026-05-08 06:11 | -19.30705 | 124.73459 | 28679 ft | 558 kts | 122° |
| 2026-05-08 06:12 | -19.32550 | 124.77072 | 28834 ft | 558 kts | 122° |
| 2026-05-08 06:12 | -19.34392 | 124.80689 | 28975 ft | 559 kts | 122° |
| 2026-05-08 06:12 | -19.36239 | 124.84318 | 29100 ft | 559 kts | 122° |
| 2026-05-08 06:12 | -19.38091 | 124.87938 | 29232 ft | 559 kts | 123° |
| 2026-05-08 06:13 | -19.39977 | 124.91547 | 29370 ft | 560 kts | 123° |
| 2026-05-08 06:13 | -19.41867 | 124.95098 | 29504 ft | 560 kts | 124° |
| 2026-05-08 06:13 | -19.43795 | 124.98678 | 29639 ft | 560 kts | 124° |
| 2026-05-08 06:13 | -19.45729 | 125.02259 | 29766 ft | 561 kts | 124° |
| 2026-05-08 06:14 | -19.47661 | 125.05852 | 29900 ft | 561 kts | 124° |
| 2026-05-08 06:14 | -19.49582 | 125.09457 | 30036 ft | 562 kts | 123° |
| 2026-05-08 06:14 | -19.51495 | 125.13072 | 30191 ft | 563 kts | 123° |
| 2026-05-08 06:14 | -19.53402 | 125.16694 | 30304 ft | 563 kts | 123° |
| 2026-05-08 06:15 | -19.55312 | 125.20328 | 30434 ft | 563 kts | 123° |
| 2026-05-08 06:15 | -19.59135 | 125.27577 | 30650 ft | 563 kts | 123° |
| 2026-05-08 06:15 | -19.61047 | 125.31194 | 30770 ft | 563 kts | 124° |
| 2026-05-08 06:16 | -19.62964 | 125.34815 | 30878 ft | 563 kts | 124° |
| 2026-05-08 06:16 | -19.64880 | 125.38436 | 30998 ft | 563 kts | 124° |
| 2026-05-08 06:16 | -19.66794 | 125.42060 | 31114 ft | 563 kts | 124° |
| 2026-05-08 06:16 | -19.68706 | 125.45688 | 31231 ft | 563 kts | 124° |
| 2026-05-08 06:17 | -19.72532 | 125.52952 | 31493 ft | 563 kts | 124° |
| 2026-05-08 06:17 | -19.74441 | 125.56577 | 31612 ft | 562 kts | 124° |
| 2026-05-08 06:17 | -19.76349 | 125.60205 | 31731 ft | 562 kts | 124° |
| 2026-05-08 06:18 | -19.78236 | 125.63799 | 31850 ft | 562 kts | 124° |
| 2026-05-08 06:18 | -19.80137 | 125.67419 | 31980 ft | 562 kts | 124° |
| 2026-05-08 06:18 | -19.82041 | 125.71043 | 32100 ft | 562 kts | 124° |
| 2026-05-08 06:18 | -19.83948 | 125.74676 | 32222 ft | 562 kts | 124° |
| 2026-05-08 06:19 | -19.85852 | 125.78310 | 32329 ft | 562 kts | 124° |
| 2026-05-08 06:19 | -19.87727 | 125.81891 | 32455 ft | 562 kts | 124° |
| 2026-05-08 06:19 | -19.89627 | 125.85525 | 32579 ft | 562 kts | 124° |
| 2026-05-08 06:19 | -19.91524 | 125.89156 | 32749 ft | 561 kts | 124° |
| 2026-05-08 06:20 | -19.93415 | 125.92781 | 32871 ft | 561 kts | 124° |
| 2026-05-08 06:20 | -19.95305 | 125.96405 | 33024 ft | 560 kts | 124° |
| 2026-05-08 06:20 | -19.99092 | 126.03670 | 33069 ft | 563 kts | 124° |
| 2026-05-08 06:21 | -20.02903 | 126.10965 | 33072 ft | 565 kts | 124° |
| 2026-05-08 06:21 | -20.06714 | 126.18267 | 33078 ft | 565 kts | 124° |
| 2026-05-08 06:22 | -20.10513 | 126.25578 | 33059 ft | 563 kts | 123° |
| 2026-05-08 06:22 | -20.14300 | 126.32878 | 33076 ft | 564 kts | 123° |
| 2026-05-08 06:23 | -20.18088 | 126.40182 | 33082 ft | 564 kts | 123° |
| 2026-05-08 06:23 | -20.21840 | 126.47467 | 33078 ft | 564 kts | 123° |
| 2026-05-08 06:24 | -20.25598 | 126.54801 | 33083 ft | 564 kts | 123° |
| 2026-05-08 06:24 | -20.29360 | 126.62153 | 33085 ft | 565 kts | 123° |
| 2026-05-08 06:25 | -20.33125 | 126.69510 | 33088 ft | 565 kts | 123° |
| 2026-05-08 06:25 | -20.36891 | 126.76858 | 33075 ft | 565 kts | 123° |
| 2026-05-08 06:26 | -20.40658 | 126.84220 | 33088 ft | 566 kts | 123° |
| 2026-05-08 06:26 | -20.44427 | 126.91587 | 33086 ft | 566 kts | 123° |
| 2026-05-08 06:27 | -20.47553 | 126.97724 | 33077 ft | 565 kts | 123° |
| 2026-05-08 06:27 | -20.51297 | 127.05094 | 33083 ft | 565 kts | 123° |
| 2026-05-08 06:28 | -20.55041 | 127.12473 | 33087 ft | 566 kts | 123° |
| 2026-05-08 06:28 | -20.58800 | 127.19849 | 33089 ft | 566 kts | 123° |
| 2026-05-08 06:29 | -20.62554 | 127.27231 | 33089 ft | 566 kts | 123° |
| 2026-05-08 06:29 | -20.66284 | 127.34616 | 33085 ft | 564 kts | 123° |
| 2026-05-08 06:30 | -20.70009 | 127.41996 | 33097 ft | 564 kts | 122° |
| 2026-05-08 06:30 | -20.73740 | 127.49370 | 33090 ft | 565 kts | 123° |
| 2026-05-08 06:31 | -20.77477 | 127.56762 | 33098 ft | 565 kts | 122° |
| 2026-05-08 06:31 | -20.81210 | 127.64184 | 33138 ft | 566 kts | 122° |
| 2026-05-08 06:32 | -20.84927 | 127.71574 | 33109 ft | 563 kts | 122° |
| 2026-05-08 06:32 | -20.88634 | 127.78958 | 33111 ft | 564 kts | 122° |
| 2026-05-08 06:33 | -20.92346 | 127.86357 | 33107 ft | 565 kts | 122° |
| 2026-05-08 06:33 | -20.96064 | 127.93763 | 33113 ft | 565 kts | 122° |
| 2026-05-08 06:34 | -20.99756 | 128.01135 | 33122 ft | 565 kts | 122° |
| 2026-05-08 06:34 | -21.03453 | 128.08548 | 33112 ft | 564 kts | 122° |
| 2026-05-08 06:35 | -21.07148 | 128.15960 | 33179 ft | 563 kts | 122° |
| 2026-05-08 06:35 | -21.08990 | 128.19657 | 33298 ft | 563 kts | 122° |
| 2026-05-08 06:35 | -21.10835 | 128.23359 | 33424 ft | 562 kts | 122° |
| 2026-05-08 06:36 | -21.12673 | 128.27047 | 33552 ft | 562 kts | 122° |
| 2026-05-08 06:36 | -21.14511 | 128.30733 | 33679 ft | 561 kts | 122° |
| 2026-05-08 06:36 | -21.16326 | 128.34377 | 33858 ft | 561 kts | 122° |
| 2026-05-08 06:36 | -21.18181 | 128.38112 | 33987 ft | 560 kts | 122° |
| 2026-05-08 06:37 | -21.19981 | 128.41746 | 34118 ft | 560 kts | 122° |
| 2026-05-08 06:37 | -21.21805 | 128.45432 | 34233 ft | 559 kts | 122° |
| 2026-05-08 06:37 | -21.23628 | 128.49110 | 34344 ft | 559 kts | 122° |
| 2026-05-08 06:37 | -21.25454 | 128.52788 | 34459 ft | 559 kts | 122° |
| 2026-05-08 06:38 | -21.27281 | 128.56467 | 34566 ft | 559 kts | 122° |
| 2026-05-08 06:38 | -21.29107 | 128.60148 | 34678 ft | 559 kts | 122° |
| 2026-05-08 06:38 | -21.30928 | 128.63827 | 34802 ft | 559 kts | 122° |
| 2026-05-08 06:38 | -21.32744 | 128.67509 | 34918 ft | 559 kts | 122° |
| 2026-05-08 06:39 | -21.34557 | 128.71191 | 35069 ft | 558 kts | 122° |
| 2026-05-08 06:39 | -21.36371 | 128.74878 | 35121 ft | 560 kts | 122° |
| 2026-05-08 06:39 | -21.40025 | 128.82296 | 35122 ft | 563 kts | 122° |
| 2026-05-08 06:40 | -21.43692 | 128.89741 | 35117 ft | 564 kts | 122° |
| 2026-05-08 06:40 | -21.47362 | 128.97195 | 35124 ft | 565 kts | 122° |
| 2026-05-08 06:41 | -21.51030 | 129.04662 | 35125 ft | 564 kts | 121° |
| 2026-05-08 06:41 | -21.54677 | 129.12104 | 35123 ft | 563 kts | 121° |
| 2026-05-08 06:42 | -21.58328 | 129.19550 | 35121 ft | 563 kts | 121° |
| 2026-05-08 06:42 | -21.61984 | 129.27006 | 35122 ft | 563 kts | 121° |
| 2026-05-08 06:43 | -21.65603 | 129.34423 | 35154 ft | 564 kts | 121° |
| 2026-05-08 06:43 | -21.69226 | 129.41906 | 35143 ft | 564 kts | 121° |
| 2026-05-08 06:44 | -21.72861 | 129.49374 | 35141 ft | 564 kts | 121° |
| 2026-05-08 06:44 | -21.76507 | 129.56850 | 35148 ft | 564 kts | 121° |
| 2026-05-08 06:45 | -21.80144 | 129.64324 | 35141 ft | 564 kts | 121° |
| 2026-05-08 06:45 | -21.83777 | 129.71825 | 35168 ft | 565 kts | 121° |
| 2026-05-08 06:46 | -21.87400 | 129.79321 | 35164 ft | 564 kts | 121° |
| 2026-05-08 06:46 | -21.91015 | 129.86822 | 35162 ft | 564 kts | 121° |
| 2026-05-08 06:47 | -21.94635 | 129.94329 | 35163 ft | 565 kts | 121° |
| 2026-05-08 06:47 | -21.98234 | 130.01787 | 35164 ft | 565 kts | 121° |
| 2026-05-08 06:48 | -22.01856 | 130.09305 | 35150 ft | 566 kts | 121° |
| 2026-05-08 06:48 | -22.05477 | 130.16838 | 35154 ft | 566 kts | 121° |
| 2026-05-08 06:49 | -22.09100 | 130.24385 | 35158 ft | 567 kts | 121° |
| 2026-05-08 06:49 | -22.12726 | 130.31943 | 35187 ft | 568 kts | 120° |
| 2026-05-08 06:50 | -22.16348 | 130.39522 | 35182 ft | 568 kts | 120° |
| 2026-05-08 06:50 | -22.19954 | 130.47093 | 35186 ft | 567 kts | 120° |
| 2026-05-08 06:51 | -22.23568 | 130.54659 | 35163 ft | 567 kts | 120° |
| 2026-05-08 06:51 | -22.27179 | 130.62232 | 35172 ft | 567 kts | 120° |
| 2026-05-08 06:52 | -22.30782 | 130.69813 | 35197 ft | 567 kts | 120° |
| 2026-05-08 06:52 | -22.34374 | 130.77381 | 35192 ft | 566 kts | 120° |
| 2026-05-08 06:53 | -22.37939 | 130.84904 | 35193 ft | 565 kts | 120° |
| 2026-05-08 06:53 | -22.41525 | 130.92476 | 35173 ft | 565 kts | 120° |
| 2026-05-08 06:54 | -22.45102 | 131.00040 | 35212 ft | 565 kts | 120° |
| 2026-05-08 06:54 | -22.48665 | 131.07597 | 35206 ft | 564 kts | 120° |
| 2026-05-08 06:55 | -22.52229 | 131.15153 | 35186 ft | 564 kts | 120° |
| 2026-05-08 06:55 | -22.55779 | 131.22714 | 35135 ft | 564 kts | 120° |
| 2026-05-08 06:56 | -22.57548 | 131.26483 | 34711 ft | 559 kts | 120° |
| 2026-05-08 06:56 | -22.59282 | 131.30182 | 34567 ft | 543 kts | 120° |
| 2026-05-08 06:56 | -22.60967 | 131.33781 | 34454 ft | 528 kts | 120° |
| 2026-05-08 06:56 | -22.62607 | 131.37282 | 34340 ft | 515 kts | 120° |
| 2026-05-08 06:57 | -22.64232 | 131.40741 | 34239 ft | 517 kts | 120° |
| 2026-05-08 06:57 | -22.65849 | 131.44174 | 34127 ft | 520 kts | 120° |
| 2026-05-08 06:57 | -22.67487 | 131.47666 | 34019 ft | 520 kts | 120° |
| 2026-05-08 06:57 | -22.69144 | 131.51209 | 33903 ft | 520 kts | 120° |
| 2026-05-08 06:58 | -22.70752 | 131.54654 | 33780 ft | 520 kts | 120° |
| 2026-05-08 06:58 | -22.72386 | 131.58154 | 33643 ft | 521 kts | 120° |
| 2026-05-08 06:58 | -22.75646 | 131.65154 | 33446 ft | 518 kts | 119° |
| 2026-05-08 06:59 | -22.77262 | 131.68629 | 33331 ft | 517 kts | 119° |
| 2026-05-08 06:59 | -22.78881 | 131.72113 | 33217 ft | 517 kts | 119° |
| 2026-05-08 06:59 | -22.80501 | 131.75592 | 33099 ft | 517 kts | 119° |
| 2026-05-08 06:59 | -22.82121 | 131.79069 | 32969 ft | 517 kts | 119° |
| 2026-05-08 07:00 | -22.83745 | 131.82555 | 32854 ft | 519 kts | 119° |
| 2026-05-08 07:00 | -22.85374 | 131.86050 | 32742 ft | 519 kts | 119° |
| 2026-05-08 07:00 | -22.87001 | 131.89541 | 32622 ft | 519 kts | 119° |
| 2026-05-08 07:00 | -22.88622 | 131.93027 | 32548 ft | 516 kts | 119° |
| 2026-05-08 07:01 | -22.90233 | 131.96501 | 32438 ft | 515 kts | 119° |
| 2026-05-08 07:01 | -22.91839 | 131.99970 | 32311 ft | 514 kts | 119° |
| 2026-05-08 07:01 | -22.93448 | 132.03447 | 32206 ft | 516 kts | 119° |
| 2026-05-08 07:01 | -22.95057 | 132.06927 | 32095 ft | 516 kts | 119° |
| 2026-05-08 07:02 | -22.96663 | 132.10404 | 31987 ft | 516 kts | 119° |
| 2026-05-08 07:02 | -22.98271 | 132.13887 | 31876 ft | 516 kts | 119° |
| 2026-05-08 07:02 | -22.99876 | 132.17371 | 31766 ft | 516 kts | 119° |
| 2026-05-08 07:02 | -23.01481 | 132.20857 | 31675 ft | 516 kts | 119° |
| 2026-05-08 07:03 | -23.03082 | 132.24335 | 31566 ft | 514 kts | 119° |
| 2026-05-08 07:03 | -23.04679 | 132.27807 | 31460 ft | 514 kts | 119° |
| 2026-05-08 07:03 | -23.06274 | 132.31276 | 31348 ft | 513 kts | 119° |
| 2026-05-08 07:03 | -23.07870 | 132.34742 | 31248 ft | 513 kts | 119° |
| 2026-05-08 07:04 | -23.09466 | 132.38205 | 31141 ft | 513 kts | 119° |
| 2026-05-08 07:04 | -23.11060 | 132.41670 | 31024 ft | 513 kts | 119° |
| 2026-05-08 07:04 | -23.12653 | 132.45149 | 30914 ft | 514 kts | 119° |
| 2026-05-08 07:04 | -23.14243 | 132.48628 | 30815 ft | 515 kts | 118° |
| 2026-05-08 07:05 | -23.17419 | 132.55578 | 30534 ft | 512 kts | 118° |
| 2026-05-08 07:05 | -23.19019 | 132.59069 | 29264 ft | 520 kts | 118° |
| 2026-05-08 07:05 | -23.20644 | 132.62612 | 27927 ft | 527 kts | 118° |
| 2026-05-08 07:06 | -23.22275 | 132.66175 | 26665 ft | 527 kts | 117° |
| 2026-05-08 07:06 | -23.23906 | 132.69750 | 25482 ft | 525 kts | 117° |
| 2026-05-08 07:06 | -23.25495 | 132.73241 | 24301 ft | 519 kts | 116° |
| 2026-05-08 07:06 | -23.27077 | 132.76724 | 23448 ft | 507 kts | 116° |
| 2026-05-08 07:07 | -23.28628 | 132.80134 | 22552 ft | 499 kts | 116° |
| 2026-05-08 07:07 | -23.30158 | 132.83496 | 21621 ft | 495 kts | 116° |
| 2026-05-08 07:07 | -23.31674 | 132.86825 | 20838 ft | 487 kts | 116° |
| 2026-05-08 07:07 | -23.33168 | 132.90104 | 19946 ft | 483 kts | 116° |
| 2026-05-08 07:08 | -23.34657 | 132.93378 | 19121 ft | 481 kts | 115° |
| 2026-05-08 07:08 | -23.36131 | 132.96620 | 18375 ft | 476 kts | 115° |
| 2026-05-08 07:08 | -23.37583 | 132.99822 | 17685 ft | 467 kts | 116° |
| 2026-05-08 07:08 | -23.39012 | 133.02973 | 16929 ft | 462 kts | 115° |
| 2026-05-08 07:09 | -23.40423 | 133.06088 | 16286 ft | 455 kts | 115° |
| 2026-05-08 07:09 | -23.41807 | 133.09149 | 15695 ft | 447 kts | 115° |
| 2026-05-08 07:09 | -23.43168 | 133.12162 | 15094 ft | 439 kts | 115° |
| 2026-05-08 07:09 | -23.44509 | 133.15132 | 14440 ft | 434 kts | 115° |
| 2026-05-08 07:10 | -23.45834 | 133.18066 | 13850 ft | 428 kts | 115° |
| 2026-05-08 07:10 | -23.47137 | 133.20948 | 13213 ft | 421 kts | 115° |
| 2026-05-08 07:10 | -23.48415 | 133.23772 | 12850 ft | 408 kts | 115° |
| 2026-05-08 07:10 | -23.49642 | 133.26482 | 12715 ft | 390 kts | 115° |
| 2026-05-08 07:11 | -23.50812 | 133.29072 | 12591 ft | 373 kts | 115° |
| 2026-05-08 07:11 | -23.51932 | 133.31555 | 12463 ft | 357 kts | 114° |
| 2026-05-08 07:11 | -23.52990 | 133.33903 | 12336 ft | 341 kts | 115° |
| 2026-05-08 07:11 | -23.53995 | 133.36139 | 12198 ft | 316 kts | 114° |
| 2026-05-08 07:12 | -23.54937 | 133.38235 | 11816 ft | 302 kts | 115° |
| 2026-05-08 07:12 | -23.55851 | 133.40274 | 11267 ft | 296 kts | 114° |
| 2026-05-08 07:12 | -23.56741 | 133.42257 | 10747 ft | 288 kts | 114° |
| 2026-05-08 07:12 | -23.57615 | 133.44200 | 10196 ft | 283 kts | 114° |
| 2026-05-08 07:13 | -23.58474 | 133.46114 | 9907 ft | 278 kts | 113° |
| 2026-05-08 07:13 | -23.59318 | 133.47999 | 9583 ft | 274 kts | 113° |
| 2026-05-08 07:13 | -23.60152 | 133.49865 | 9158 ft | 274 kts | 114° |
| 2026-05-08 07:13 | -23.60718 | 133.51130 | 8822 ft | 275 kts | 114° |
| 2026-05-08 07:14 | -23.61552 | 133.52988 | 8470 ft | 272 kts | 112° |
| 2026-05-08 07:14 | -23.62386 | 133.54844 | 7888 ft | 277 kts | 114° |
| 2026-05-08 07:14 | -23.63245 | 133.56760 | 7291 ft | 283 kts | 114° |
| 2026-05-08 07:14 | -23.64100 | 133.58663 | 7077 ft | 274 kts | 114° |
| 2026-05-08 07:15 | -23.64920 | 133.60488 | 6946 ft | 260 kts | 112° |
| 2026-05-08 07:15 | -23.65680 | 133.62169 | 6835 ft | 233 kts | 114° |
| 2026-05-08 07:15 | -23.66357 | 133.63681 | 6750 ft | 211 kts | 114° |
| 2026-05-08 07:15 | -23.67033 | 133.65021 | 6602 ft | 196 kts | 115° |
| 2026-05-08 07:16 | -23.67698 | 133.66272 | 6380 ft | 183 kts | 117° |
| 2026-05-08 07:16 | -23.68299 | 133.67387 | 6289 ft | 161 kts | 116° |
| 2026-05-08 07:16 | -23.68842 | 133.68396 | 6123 ft | 147 kts | 117° |
| 2026-05-08 07:16 | -23.69343 | 133.69327 | 5951 ft | 139 kts | 118° |
| 2026-05-08 07:17 | -23.69835 | 133.70243 | 5799 ft | 140 kts | 118° |
| 2026-05-08 07:17 | -23.70323 | 133.71150 | 5612 ft | 138 kts | 119° |
| 2026-05-08 07:17 | -23.70810 | 133.72054 | 5422 ft | 138 kts | 120° |
| 2026-05-08 07:17 | -23.71297 | 133.72957 | 5239 ft | 138 kts | 121° |
| 2026-05-08 07:18 | -23.71777 | 133.73849 | 5060 ft | 138 kts | 121° |
| 2026-05-08 07:18 | -23.72262 | 133.74750 | 4884 ft | 136 kts | 121° |
| 2026-05-08 07:18 | -23.72741 | 133.75640 | 4685 ft | 135 kts | 121° |
| 2026-05-08 07:18 | -23.73220 | 133.76530 | 4506 ft | 138 kts | 121° |
| 2026-05-08 07:19 | -23.73701 | 133.77423 | 4322 ft | 137 kts | 121° |
| 2026-05-08 07:19 | -23.74178 | 133.78309 | 4145 ft | 134 kts | 121° |
| 2026-05-08 07:19 | -23.74652 | 133.79190 | 3962 ft | 132 kts | 121° |
| 2026-05-08 07:19 | -23.75117 | 133.80054 | 3791 ft | 132 kts | 121° |
| 2026-05-08 07:20 | -23.75586 | 133.80927 | 3617 ft | 133 kts | 121° |
| 2026-05-08 07:20 | -23.76056 | 133.81801 | 3427 ft | 134 kts | 121° |
| 2026-05-08 07:20 | -23.76530 | 133.82683 | 3247 ft | 132 kts | 122° |
| 2026-05-08 07:20 | -23.76988 | 133.83536 | 3076 ft | 131 kts | 122° |
| 2026-05-08 07:21 | -23.77459 | 133.84411 | 2890 ft | 134 kts | 122° |
| 2026-05-08 07:21 | -23.77931 | 133.85283 | 2680 ft | 131 kts | 121° |
| 2026-05-08 07:21 | -23.78393 | 133.86109 | 2520 ft | 127 kts | 121° |
| 2026-05-08 07:21 | -23.78871 | 133.86943 | 2320 ft | 129 kts | 121° |
| 2026-05-08 07:22 | -23.79299 | 133.87782 | 2243 ft | 126 kts | 117° |
| 2026-05-08 07:22 | -23.79705 | 133.88631 | 1985 ft | 126 kts | 120° |
| 2026-05-08 07:22 | -23.80160 | 133.89459 | 1824 ft | 126 kts | 122° |
| 2026-05-08 07:22 | -23.80546 | 133.90160 | 1790 ft | 68 kts | 118° |
| 2026-05-08 07:23 | -23.80603 | 133.90284 | 1790 ft | 2 kts | 96° |
| 2026-05-08 07:23 | -23.80569 | 133.90327 | 1791 ft | 22 kts | 31° |
| 2026-05-08 07:23 | -23.80427 | 133.90357 | 1793 ft | 17 kts | 311° |
| 2026-05-08 07:23 | -23.80386 | 133.90253 | 1793 ft | 14 kts | 306° |
| 2026-05-08 07:24 | -23.80336 | 133.90172 | 1792 ft | 12 kts | 301° |
| 2026-05-08 07:24 | -23.80302 | 133.90110 | 1793 ft | 8 kts | 300° |
| 2026-05-08 07:24 | -23.80280 | 133.90083 | 1793 ft | 3 kts | 346° |
| 2026-05-08 07:24 | -23.80266 | 133.90089 | 1793 ft | 1 kts | 21° |
| 2026-05-08 07:25 | -23.80252 | 133.90084 | 1791 ft | 0 kts | 309° |